createdAt,value
2022-09-24T00:00:45.115Z,982.3
2022-09-24T00:02:46.131Z,982.3
2022-09-24T00:06:49.241Z,982.2
2022-09-24T00:08:50.623Z,982.1
2022-09-24T00:10:52.260Z,982.1
2022-09-24T00:12:53.331Z,982.2
2022-09-24T00:14:55.185Z,982.2
2022-09-24T00:16:56.845Z,982.2
2022-09-24T00:18:58.774Z,982.2
2022-09-24T00:21:00.409Z,982.2
2022-09-24T00:23:01.496Z,982.2
2022-09-24T00:25:03.228Z,982.3
2022-09-24T00:27:04.555Z,982.3
2022-09-24T00:29:06.460Z,982.1
2022-09-24T00:31:07.723Z,982.1
2022-09-24T00:33:09.236Z,982.1
2022-09-24T00:35:10.798Z,982
2022-09-24T00:37:11.785Z,982.2
2022-09-24T00:39:13.594Z,982.1
2022-09-24T00:41:14.572Z,982.1
2022-09-24T00:43:16.396Z,982.1
2022-09-24T00:45:18.168Z,982.1
2022-09-24T00:49:20.846Z,982.1
2022-09-24T00:51:21.927Z,982.1
2022-09-24T00:53:23.172Z,982
2022-09-24T00:55:25.125Z,982
2022-09-24T00:59:28.330Z,981.9
2022-09-24T01:01:30.190Z,981.9
2022-09-24T01:03:31.703Z,981.8
2022-09-24T01:05:33.302Z,981.8
2022-09-24T01:07:34.576Z,981.7
2022-09-24T01:09:35.854Z,981.7
2022-09-24T01:11:37.589Z,981.7
2022-09-24T01:13:43.028Z,981.7
2022-09-24T01:15:41.084Z,981.6
2022-09-24T01:17:42.811Z,981.6
2022-09-24T01:19:43.936Z,981.6
2022-09-24T01:21:45.718Z,981.6
2022-09-24T01:23:48.912Z,981.6
2022-09-24T01:25:48.275Z,981.6
2022-09-24T01:27:50.063Z,981.6
2022-09-24T01:29:51.157Z,981.4
2022-09-24T01:31:52.744Z,981.4
2022-09-24T01:33:53.710Z,981.4
2022-09-24T01:35:55.493Z,981.4
2022-09-24T01:37:57.282Z,981.3
2022-09-24T01:39:58.509Z,981.4
2022-09-24T01:42:00.325Z,981.3
2022-09-24T01:44:01.991Z,981.4
2022-09-24T01:48:04.581Z,981.3
2022-09-24T01:50:05.665Z,981.2
2022-09-24T01:52:06.719Z,981.1
2022-09-24T01:54:08.040Z,981.1
2022-09-24T01:56:09.571Z,981.1
2022-09-24T01:58:10.779Z,981.2
2022-09-24T02:00:12.580Z,981.2
2022-09-24T02:04:15.570Z,981.3
2022-09-24T02:06:16.914Z,981.2
2022-09-24T02:08:18.287Z,981.2
2022-09-24T02:10:19.979Z,981.3
2022-09-24T02:12:21.267Z,981.3
2022-09-24T02:14:22.957Z,981.1
2022-09-24T02:16:24.889Z,981.1
2022-09-24T02:18:25.929Z,981.2
2022-09-24T02:20:27.483Z,981.1
2022-09-24T02:22:28.838Z,981.2
2022-09-24T02:24:29.850Z,981
2022-09-24T02:26:30.972Z,981.1
2022-09-24T02:28:32.877Z,981.1
2022-09-24T02:30:34.081Z,981
2022-09-24T02:32:35.113Z,981.1
2022-09-24T02:34:36.113Z,981.1
2022-09-24T02:36:37.258Z,981.1
2022-09-24T02:38:38.493Z,981
2022-09-24T02:41:24.201Z,981
2022-09-24T02:43:25.507Z,981
2022-09-24T02:45:27.149Z,981
2022-09-24T02:47:28.987Z,981.1
2022-09-24T02:49:30.935Z,980.9
2022-09-24T02:51:32.738Z,981
2022-09-24T02:53:34.298Z,981
2022-09-24T02:55:36.213Z,980.9
2022-09-24T02:57:37.809Z,980.9
2022-09-24T02:59:39.770Z,980.9
2022-09-24T03:01:41.171Z,980.9
2022-09-24T03:03:42.716Z,980.9
2022-09-24T03:07:45.768Z,980.8
2022-09-24T03:09:47.237Z,980.9
2022-09-24T03:11:49.078Z,980.9
2022-09-24T03:13:50.350Z,980.9
2022-09-24T03:15:52.281Z,980.9
2022-09-24T03:17:53.578Z,980.9
2022-09-24T03:19:54.720Z,980.9
2022-09-24T03:21:56.172Z,980.9
2022-09-24T03:23:57.419Z,980.9
2022-09-24T03:25:59.130Z,980.9
2022-09-24T03:28:00.475Z,980.9
2022-09-24T03:30:01.735Z,980.9
2022-09-24T03:32:03.601Z,981
2022-09-24T03:34:04.733Z,980.9
2022-09-24T03:36:06.139Z,981
2022-09-24T03:38:07.268Z,980.9
2022-09-24T03:40:09.227Z,980.9
2022-09-24T03:42:10.501Z,980.8
2022-09-24T03:44:12.276Z,980.8
2022-09-24T03:46:13.892Z,980.8
2022-09-24T03:48:14.930Z,980.8
2022-09-24T03:50:16.797Z,980.8
2022-09-24T03:52:18.664Z,980.9
2022-09-24T03:54:20.109Z,980.8
2022-09-24T03:56:21.743Z,980.9
2022-09-24T04:00:25.311Z,980.9
2022-09-24T04:02:26.998Z,981
2022-09-24T04:04:28.138Z,980.8
2022-09-24T04:06:29.271Z,980.8
2022-09-24T04:08:30.741Z,980.7
2022-09-24T04:10:32.199Z,980.7
2022-09-24T04:12:33.893Z,980.7
2022-09-24T04:14:34.930Z,980.6
2022-09-24T04:16:36.295Z,980.7
2022-09-24T04:18:39.340Z,980.6
2022-09-24T04:20:39.562Z,980.6
2022-09-24T04:22:41.116Z,980.6
2022-09-24T04:24:42.797Z,980.6
2022-09-24T04:26:43.814Z,980.6
2022-09-24T04:28:45.228Z,980.5
2022-09-24T04:30:46.707Z,980.6
2022-09-24T04:32:47.872Z,980.5
2022-09-24T04:34:49.830Z,980.5
2022-09-24T04:36:51.416Z,980.6
2022-09-24T04:38:52.975Z,980.6
2022-09-24T04:40:54.000Z,980.6
2022-09-24T04:42:55.402Z,980.5
2022-09-24T04:44:57.068Z,980.6
2022-09-24T04:49:00.071Z,980.7
2022-09-24T04:51:01.917Z,980.6
2022-09-24T04:53:03.573Z,980.6
2022-09-24T04:55:05.187Z,980.6
2022-09-24T04:57:07.027Z,980.6
2022-09-24T04:59:08.358Z,980.6
2022-09-24T05:01:09.825Z,980.6
2022-09-24T05:03:11.495Z,980.6
2022-09-24T05:05:12.990Z,980.5
2022-09-24T05:07:14.807Z,980.5
2022-09-24T05:09:16.446Z,980.6
2022-09-24T05:11:17.975Z,980.6
2022-09-24T05:13:18.997Z,980.6
2022-09-24T05:15:20.086Z,980.5
2022-09-24T05:17:21.295Z,980.6
2022-09-24T05:19:22.319Z,980.6
2022-09-24T05:21:24.088Z,980.5
2022-09-24T05:23:25.701Z,980.5
2022-09-24T05:25:26.938Z,980.5
2022-09-24T05:27:28.224Z,980.4
2022-09-24T05:29:30.069Z,980.5
2022-09-24T05:31:31.138Z,980.6
2022-09-24T05:33:32.597Z,980.5
2022-09-24T05:35:34.215Z,980.5
2022-09-24T05:37:35.390Z,980.7
2022-09-24T05:39:36.370Z,980.6
2022-09-24T05:41:38.282Z,980.6
2022-09-24T05:43:39.714Z,980.7
2022-09-24T05:47:42.660Z,980.8
2022-09-24T05:49:44.518Z,980.8
2022-09-24T05:51:46.419Z,980.7
2022-09-24T05:53:47.441Z,980.7
2022-09-24T05:55:49.172Z,980.7
2022-09-24T05:57:50.174Z,980.7
2022-09-24T05:59:51.893Z,980.7
2022-09-24T06:01:53.032Z,980.8
2022-09-24T06:03:54.558Z,980.8
2022-09-24T06:05:55.595Z,980.7
2022-09-24T06:07:56.638Z,980.7
2022-09-24T06:09:58.123Z,980.7
2022-09-24T06:14:01.741Z,980.8
2022-09-24T06:16:03.469Z,980.7
2022-09-24T06:18:05.060Z,980.7
2022-09-24T06:20:06.785Z,980.7
2022-09-24T06:22:08.277Z,980.7
2022-09-24T06:24:09.497Z,980.7
2022-09-24T06:26:10.516Z,980.7
2022-09-24T06:28:11.891Z,980.8
2022-09-24T06:30:13.764Z,980.8
2022-09-24T06:32:15.647Z,980.8
2022-09-24T06:34:17.259Z,980.9
2022-09-24T06:36:19.051Z,980.9
2022-09-24T06:38:20.472Z,980.9
2022-09-24T06:40:21.743Z,980.9
2022-09-24T06:42:23.197Z,981
2022-09-24T06:44:24.342Z,980.8
2022-09-24T06:46:26.199Z,980.9
2022-09-24T06:48:27.110Z,980.8
2022-09-24T06:50:28.888Z,980.8
2022-09-24T06:52:30.063Z,980.9
2022-09-24T06:54:31.855Z,980.8
2022-09-24T06:56:32.876Z,980.8
2022-09-24T06:58:34.057Z,980.8
2022-09-24T07:00:35.243Z,980.8
2022-09-24T07:02:36.464Z,980.9
2022-09-24T07:06:39.174Z,981
2022-09-24T07:08:41.000Z,981
2022-09-24T07:10:42.424Z,980.9
2022-09-24T07:12:44.230Z,981
2022-09-24T07:14:45.552Z,981.1
2022-09-24T07:16:47.098Z,981
2022-09-24T07:18:48.422Z,981.1
2022-09-24T07:20:49.549Z,981.2
2022-09-24T07:22:51.277Z,981.2
2022-09-24T07:24:53.122Z,981.2
2022-09-24T07:26:54.809Z,981.3
2022-09-24T07:28:56.401Z,981.2
2022-09-24T07:30:57.553Z,981.1
2022-09-24T07:32:59.103Z,981.1
2022-09-24T07:35:00.419Z,981
2022-09-24T07:37:02.222Z,981
2022-09-24T07:39:03.762Z,981.1
2022-09-24T07:41:05.347Z,981.1
2022-09-24T07:43:06.655Z,981.1
2022-09-24T07:45:08.073Z,981.1
2022-09-24T07:47:13.386Z,981
2022-09-24T07:49:10.412Z,981.1
2022-09-24T07:51:12.077Z,981.2
2022-09-24T07:53:13.612Z,981.1
2022-09-24T07:55:15.034Z,981.2
2022-09-24T07:57:16.418Z,981.2
2022-09-24T07:59:17.664Z,981.3
2022-09-24T08:01:19.200Z,981.2
2022-09-24T08:03:20.666Z,981.1
2022-09-24T08:05:21.601Z,981.1
2022-09-24T08:07:22.738Z,981.1
2022-09-24T08:09:24.103Z,981.1
2022-09-24T08:11:25.271Z,981.1
2022-09-24T08:13:27.814Z,981.1
2022-09-24T08:15:29.150Z,981.1
2022-09-24T08:17:30.474Z,981.1
2022-09-24T08:19:32.272Z,981.2
2022-09-24T08:21:33.533Z,981.3
2022-09-24T08:23:34.547Z,981.2
2022-09-24T08:25:36.280Z,981.2
2022-09-24T08:27:37.709Z,981.2
2022-09-24T08:29:39.070Z,981.2
2022-09-24T08:31:41.842Z,981.3
2022-09-24T08:33:42.667Z,981.2
2022-09-24T08:35:44.459Z,981.4
2022-09-24T08:37:46.249Z,981.3
2022-09-24T08:39:47.967Z,981.3
2022-09-24T08:41:49.274Z,981.3
2022-09-24T08:43:50.982Z,981.2
2022-09-24T08:45:52.275Z,981.3
2022-09-24T08:47:53.180Z,981.2
2022-09-24T08:49:54.121Z,981.2
2022-09-24T08:51:55.926Z,981.2
2022-09-24T08:53:57.901Z,981.2
2022-09-24T08:55:59.026Z,981.1
2022-09-24T08:58:00.675Z,981.2
2022-09-24T09:00:02.275Z,981.1
2022-09-24T09:02:03.998Z,981.1
2022-09-24T09:04:05.426Z,981.2
2022-09-24T09:06:06.645Z,981.3
2022-09-24T09:08:21.517Z,981.2
2022-09-24T09:10:08.778Z,981.3
2022-09-24T09:14:11.911Z,981.3
2022-09-24T09:16:13.245Z,981.3
2022-09-24T09:18:14.532Z,981.3
2022-09-24T09:20:15.620Z,981.3
2022-09-24T09:22:16.926Z,981.3
2022-09-24T09:25:18.924Z,981.2
2022-09-24T09:27:20.030Z,981.3
2022-09-24T09:29:21.167Z,981.3
2022-09-24T09:31:22.864Z,981.4
2022-09-24T09:33:24.046Z,981.3
2022-09-24T09:35:25.654Z,981.3
2022-09-24T09:37:27.406Z,981.3
2022-09-24T09:39:28.483Z,981.4
2022-09-24T09:41:29.875Z,981.4
2022-09-24T09:43:31.034Z,981.4
2022-09-24T09:45:32.055Z,981.3
2022-09-24T09:47:33.526Z,981.3
2022-09-24T09:49:34.668Z,981.3
2022-09-24T09:51:35.826Z,981.2
2022-09-24T09:53:37.613Z,981.3
2022-09-24T09:55:38.686Z,981.2
2022-09-24T09:57:40.150Z,981.3
2022-09-24T09:59:41.316Z,981.2
2022-09-24T10:03:43.958Z,981.2
2022-09-24T10:05:45.409Z,981.2
2022-09-24T10:07:47.072Z,981.3
2022-09-24T10:09:48.615Z,981.2
2022-09-24T10:11:49.991Z,981.2
2022-09-24T10:13:51.698Z,981.1
2022-09-24T10:15:53.405Z,981.1
2022-09-24T10:17:55.095Z,981.2
2022-09-24T10:19:55.915Z,981.2
2022-09-24T10:21:56.863Z,981.1
2022-09-24T10:23:57.921Z,981.1
2022-09-24T10:25:58.927Z,981.1
2022-09-24T10:30:01.364Z,981.1
2022-09-24T10:32:03.107Z,981
2022-09-24T10:34:04.415Z,981
2022-09-24T10:36:05.388Z,981
2022-09-24T10:38:06.631Z,981.1
2022-09-24T10:40:08.020Z,981.1
2022-09-24T10:42:08.873Z,981.1
2022-09-24T10:44:09.833Z,981.1
2022-09-24T10:46:11.107Z,981.1
2022-09-24T10:48:12.019Z,981.1
2022-09-24T10:50:13.218Z,981.1
2022-09-24T10:52:14.923Z,981.1
2022-09-24T10:54:16.568Z,981
2022-09-24T10:56:17.689Z,981.1
2022-09-24T10:58:19.186Z,981.1
2022-09-24T11:00:20.620Z,981.1
2022-09-24T11:02:22.474Z,981.1
2022-09-24T11:04:24.064Z,981
2022-09-24T11:06:24.967Z,981
2022-09-24T11:08:26.068Z,981
2022-09-24T11:10:27.732Z,981.1
2022-09-24T11:12:29.504Z,981
2022-09-24T11:14:31.032Z,981
2022-09-24T11:16:32.191Z,981.1
2022-09-24T11:18:33.408Z,981.1
2022-09-24T11:20:35.106Z,981.1
2022-09-24T11:22:36.364Z,981.2
2022-09-24T11:24:37.672Z,981.1
2022-09-24T11:26:38.681Z,981.1
2022-09-24T11:28:40.016Z,981.1
2022-09-24T11:30:40.928Z,981.1
2022-09-24T11:32:41.757Z,981.1
2022-09-24T11:34:42.744Z,981.1
2022-09-24T11:36:44.474Z,981.1
2022-09-24T11:38:46.213Z,981.1
2022-09-24T11:40:47.227Z,981
2022-09-24T11:44:49.363Z,981
2022-09-24T11:46:50.409Z,980.9
2022-09-24T11:48:51.524Z,980.9
2022-09-24T11:50:52.843Z,981
2022-09-24T11:52:54.460Z,981
2022-09-24T11:54:55.789Z,980.9
2022-09-24T11:56:57.385Z,980.9
2022-09-24T11:58:58.963Z,980.8
2022-09-24T12:01:00.473Z,980.9
2022-09-24T12:03:01.761Z,980.9
2022-09-24T12:05:03.445Z,980.8
2022-09-24T12:07:04.700Z,980.8
2022-09-24T12:09:05.537Z,980.8
2022-09-24T12:11:07.940Z,980.7
2022-09-24T12:13:09.714Z,980.8
2022-09-24T12:15:10.775Z,980.8
2022-09-24T12:17:12.093Z,980.8
2022-09-24T12:19:13.390Z,980.8
2022-09-24T12:21:14.766Z,980.8
2022-09-24T12:23:16.070Z,980.8
2022-09-24T12:25:17.862Z,980.7
2022-09-24T12:27:19.248Z,980.7
2022-09-24T12:29:20.887Z,980.7
2022-09-24T12:31:23.485Z,980.7
2022-09-24T12:33:24.585Z,980.7
2022-09-24T12:35:26.109Z,980.7
2022-09-24T12:37:27.921Z,980.8
2022-09-24T12:39:29.263Z,980.7
2022-09-24T12:41:30.942Z,980.7
2022-09-24T12:43:32.612Z,980.8
2022-09-24T12:45:33.571Z,980.8
2022-09-24T12:47:34.832Z,980.8
2022-09-24T12:49:36.308Z,980.7
2022-09-24T12:53:39.173Z,980.6
2022-09-24T12:55:40.633Z,980.5
2022-09-24T12:57:41.715Z,980.6
2022-09-24T12:59:43.283Z,980.6
2022-09-24T13:03:47.362Z,980.6
2022-09-24T13:05:46.138Z,980.6
2022-09-24T13:07:48.454Z,980.6
2022-09-24T13:09:49.731Z,980.6
2022-09-24T13:11:50.725Z,980.6
2022-09-24T13:13:51.778Z,980.6
2022-09-24T13:15:53.496Z,980.6
2022-09-24T13:17:54.466Z,980.5
2022-09-24T13:19:56.131Z,980.5
2022-09-24T13:21:57.439Z,980.5
2022-09-24T13:23:58.352Z,980.5
2022-09-24T13:25:59.334Z,980.5
2022-09-24T13:28:00.642Z,980.5
2022-09-24T13:30:01.898Z,980.5
2022-09-24T13:32:03.635Z,980.4
2022-09-24T13:34:05.040Z,980.4
2022-09-24T13:36:06.877Z,980.5
2022-09-24T13:38:08.336Z,980.4
2022-09-24T13:40:09.277Z,980.5
2022-09-24T13:42:10.377Z,980.5
2022-09-24T13:44:11.528Z,980.6
2022-09-24T13:46:12.855Z,980.6
2022-09-24T13:48:14.600Z,980.6
2022-09-24T13:50:15.468Z,980.6
2022-09-24T13:52:17.000Z,980.6
2022-09-24T13:54:18.437Z,980.6
2022-09-24T13:56:20.163Z,980.6
2022-09-24T13:58:21.750Z,980.5
2022-09-24T14:00:22.783Z,980.5
2022-09-24T14:02:24.171Z,980.5
2022-09-24T14:04:25.446Z,980.5
2022-09-24T14:08:28.027Z,980.5
2022-09-24T14:10:29.122Z,980.5
2022-09-24T14:12:30.044Z,980.5
2022-09-24T14:14:30.948Z,980.5
2022-09-24T14:16:32.494Z,980.4
2022-09-24T14:18:33.600Z,980.4
2022-09-24T14:20:34.932Z,980.5
2022-09-24T14:22:36.302Z,980.5
2022-09-24T14:24:37.321Z,980.5
2022-09-24T14:26:38.289Z,980.4
2022-09-24T14:28:39.874Z,980.4
2022-09-24T14:30:41.142Z,980.4
2022-09-24T14:34:43.254Z,980.5
2022-09-24T14:36:44.876Z,980.4
2022-09-24T14:38:48.900Z,980.4
2022-09-24T14:40:47.595Z,980.4
2022-09-24T14:42:48.977Z,980.3
2022-09-24T14:44:50.720Z,980.3
2022-09-24T14:46:51.866Z,980.4
2022-09-24T14:48:53.574Z,980.4
2022-09-24T14:50:55.042Z,980.4
2022-09-24T14:52:56.729Z,980.3
2022-09-24T14:54:58.035Z,980.4
2022-09-24T14:56:59.802Z,980.3
2022-09-24T14:59:01.622Z,980.3
2022-09-24T15:01:02.801Z,980.3
2022-09-24T15:03:04.423Z,980.3
2022-09-24T15:05:06.382Z,980.3
2022-09-24T15:07:07.449Z,980.3
2022-09-24T15:09:08.697Z,980.3
2022-09-24T15:11:09.805Z,980.4
2022-09-24T15:13:11.584Z,980.4
2022-09-24T15:17:14.386Z,980.4
2022-09-24T15:19:15.773Z,980.4
2022-09-24T15:21:17.517Z,980.4
2022-09-24T15:23:18.987Z,980.4
2022-09-24T15:27:21.280Z,980.4
2022-09-24T15:29:22.648Z,980.4
2022-09-24T15:33:24.568Z,980.4
2022-09-24T15:35:25.558Z,980.3
2022-09-24T15:37:26.513Z,980.4
2022-09-24T15:39:28.116Z,980.4
2022-09-24T15:41:29.174Z,980.4
2022-09-24T15:43:30.434Z,980.3
2022-09-24T15:45:32.064Z,980.4
2022-09-24T15:47:33.687Z,980.3
2022-09-24T15:49:34.891Z,980.3
2022-09-24T15:51:36.154Z,980.4
2022-09-24T15:53:37.832Z,980.3
2022-09-24T15:55:38.729Z,980.3
2022-09-24T15:57:40.295Z,980.3
2022-09-24T15:59:41.785Z,980.2
2022-09-24T16:01:43.050Z,980.2
2022-09-24T16:03:43.994Z,980.3
2022-09-24T16:05:45.595Z,980.3
2022-09-24T16:07:47.343Z,980.4
2022-09-24T16:09:48.408Z,980.3
2022-09-24T16:10:32.163Z,980.2
2022-09-24T16:12:33.121Z,980.3
2022-09-24T16:14:34.966Z,980.3
2022-09-24T16:16:36.489Z,980.2
2022-09-24T16:18:37.408Z,980.2
2022-09-24T16:20:38.929Z,980.3
2022-09-24T16:22:40.737Z,980.2
2022-09-24T16:26:43.978Z,980.3
2022-09-24T16:28:45.529Z,980.3
2022-09-24T16:30:47.344Z,980.3
2022-09-24T16:32:48.569Z,980.3
2022-09-24T16:34:49.688Z,980.4
2022-09-24T16:36:50.605Z,980.3
2022-09-24T16:38:52.069Z,980.3
2022-09-24T16:40:53.567Z,980.4
2022-09-24T16:42:55.188Z,980.3
2022-09-24T16:44:56.537Z,980.4
2022-09-24T16:46:57.500Z,980.3
2022-09-24T16:48:58.446Z,980.4
2022-09-24T16:53:01.130Z,980.5
2022-09-24T16:55:02.999Z,980.4
2022-09-24T16:57:04.126Z,980.5
2022-09-24T16:59:05.675Z,980.4
2022-09-24T17:03:08.237Z,980.4
2022-09-24T17:05:09.501Z,980.4
2022-09-24T17:07:10.518Z,980.5
2022-09-24T17:09:12.491Z,980.5
2022-09-24T17:11:13.294Z,980.4
2022-09-24T17:13:14.735Z,980.4
2022-09-24T17:15:16.599Z,980.3
2022-09-24T17:17:18.032Z,980.4
2022-09-24T17:19:19.183Z,980.3
2022-09-24T17:21:20.124Z,980.4
2022-09-24T17:23:21.472Z,980.3
2022-09-24T17:25:22.522Z,980.4
2022-09-24T17:27:24.251Z,980.4
2022-09-24T17:29:28.945Z,980.4
2022-09-24T17:31:26.965Z,980.3
2022-09-24T17:33:42.687Z,980.3
2022-09-24T17:35:29.948Z,980.4
2022-09-24T17:37:31.208Z,980.3
2022-09-24T17:39:33.055Z,980.4
2022-09-24T17:41:34.839Z,980.3
2022-09-24T17:43:36.266Z,980.4
2022-09-24T17:45:38.206Z,980.4
2022-09-24T17:47:39.341Z,980.4
2022-09-24T17:51:42.581Z,980.5
2022-09-24T17:53:44.327Z,980.5
2022-09-24T17:55:45.459Z,980.5
2022-09-24T17:57:47.216Z,980.6
2022-09-24T17:59:48.819Z,980.7
2022-09-24T18:01:50.471Z,980.6
2022-09-24T18:03:51.733Z,980.5
2022-09-24T18:05:52.856Z,980.6
2022-09-24T18:07:54.321Z,980.5
2022-09-24T18:09:56.277Z,980.6
2022-09-24T18:11:57.184Z,980.6
2022-09-24T18:13:58.122Z,980.6
2022-09-24T18:15:59.086Z,980.6
2022-09-24T18:17:59.956Z,980.6
2022-09-24T18:20:01.142Z,980.6
2022-09-24T18:22:03.040Z,980.5
2022-09-24T18:24:03.964Z,980.6
2022-09-24T18:26:05.155Z,980.6
2022-09-24T18:28:06.699Z,980.7
2022-09-24T18:30:08.538Z,980.6
2022-09-24T18:32:09.875Z,980.6
2022-09-24T18:34:11.596Z,980.6
2022-09-24T18:36:12.940Z,980.7
2022-09-24T18:38:14.529Z,980.7
2022-09-24T18:40:16.370Z,980.7
2022-09-24T18:42:17.767Z,980.6
2022-09-24T18:44:19.190Z,980.7
2022-09-24T18:46:20.369Z,980.7
2022-09-24T18:50:23.216Z,980.7
2022-09-24T18:52:24.987Z,980.7
2022-09-24T18:54:26.390Z,980.7
2022-09-24T18:56:28.184Z,980.7
2022-09-24T18:58:29.596Z,980.7
2022-09-24T19:00:30.423Z,980.7
2022-09-24T19:02:32.530Z,980.8
2022-09-24T19:04:34.125Z,980.7
2022-09-24T19:06:35.299Z,980.7
2022-09-24T19:08:36.528Z,980.8
2022-09-24T19:10:37.951Z,980.8
2022-09-24T19:12:39.206Z,980.8
2022-09-24T19:14:40.344Z,980.8
2022-09-24T19:16:42.073Z,980.8
2022-09-24T19:18:43.189Z,980.8
2022-09-24T19:20:44.129Z,980.8
2022-09-24T19:22:45.658Z,980.8
2022-09-24T19:26:49.207Z,980.8
2022-09-24T19:28:50.940Z,980.8
2022-09-24T19:30:52.196Z,980.7
2022-09-24T19:32:53.607Z,980.8
2022-09-24T19:34:55.353Z,980.8
2022-09-24T19:36:57.244Z,980.7
2022-09-24T19:38:58.790Z,980.7
2022-09-24T19:41:00.540Z,980.7
2022-09-24T19:43:01.542Z,980.7
2022-09-24T19:45:02.696Z,980.7
2022-09-24T19:47:03.886Z,980.7
2022-09-24T19:49:05.091Z,980.7
2022-09-24T19:51:06.719Z,980.8
2022-09-24T19:53:07.916Z,980.7
2022-09-24T19:55:09.160Z,980.7
2022-09-24T19:59:11.901Z,980.6
2022-09-24T20:01:16.986Z,980.8
2022-09-24T20:03:14.778Z,980.7
2022-09-24T20:05:16.497Z,980.7
2022-09-24T20:09:19.990Z,980.7
2022-09-24T20:11:21.701Z,980.7
2022-09-24T20:13:23.152Z,980.6
2022-09-24T20:15:24.617Z,980.7
2022-09-24T20:17:25.732Z,980.7
2022-09-24T20:19:27.501Z,980.7
2022-09-24T20:21:29.318Z,980.6
2022-09-24T20:23:30.463Z,980.7
2022-09-24T20:25:31.962Z,980.7
2022-09-24T20:27:33.706Z,980.7
2022-09-24T20:29:34.766Z,980.7
2022-09-24T20:31:36.045Z,980.6
2022-09-24T20:33:36.998Z,980.6
2022-09-24T20:35:38.839Z,980.7
2022-09-24T20:37:40.354Z,980.7
2022-09-24T20:39:41.511Z,980.7
2022-09-24T20:41:42.828Z,980.7
2022-09-24T20:43:44.309Z,980.7
2022-09-24T20:45:45.979Z,980.8
2022-09-24T20:47:47.313Z,980.8
2022-09-24T20:49:48.303Z,980.9
2022-09-24T20:51:54.238Z,980.9
2022-09-24T20:53:51.023Z,980.9
2022-09-24T20:55:52.499Z,980.9
2022-09-24T20:57:53.774Z,980.9
2022-09-24T20:59:54.844Z,980.9
2022-09-24T21:01:56.135Z,980.9
2022-09-24T21:03:57.656Z,981
2022-09-24T21:05:58.452Z,980.9
2022-09-24T21:07:59.470Z,981
2022-09-24T21:10:00.758Z,980.9
2022-09-24T21:14:04.392Z,980.9
2022-09-24T21:16:06.354Z,980.9
2022-09-24T21:18:22.068Z,980.9
2022-09-24T21:20:09.081Z,980.9
2022-09-24T21:22:10.036Z,981
2022-09-24T21:24:11.891Z,980.9
2022-09-24T21:26:13.049Z,980.8
2022-09-24T21:28:14.903Z,980.9
2022-09-24T21:30:16.572Z,980.9
2022-09-24T21:32:17.801Z,980.9
2022-09-24T21:34:19.326Z,980.8
2022-09-24T21:36:21.143Z,980.8
2022-09-24T21:38:22.938Z,980.8
2022-09-24T21:40:24.741Z,980.8
2022-09-24T21:42:25.809Z,980.8
2022-09-24T21:44:27.268Z,980.8
2022-09-24T21:46:29.054Z,980.8
2022-09-24T21:48:30.348Z,980.7
2022-09-24T21:50:33.957Z,980.8
2022-09-24T21:52:33.387Z,980.8
2022-09-24T21:56:36.266Z,980.8
2022-09-24T21:58:37.242Z,980.8
2022-09-24T22:00:38.880Z,980.8
2022-09-24T22:02:43.417Z,980.8
2022-09-24T22:04:42.171Z,980.9
2022-09-24T22:06:43.122Z,980.8
2022-09-24T22:08:44.813Z,980.7
2022-09-24T22:10:45.833Z,980.8
2022-09-24T22:12:47.031Z,980.7
2022-09-24T22:14:48.837Z,980.7
2022-09-24T22:16:50.142Z,980.7
2022-09-24T22:18:51.000Z,980.7
2022-09-24T22:22:54.139Z,980.7
2022-09-24T22:24:55.547Z,980.7
2022-09-24T22:26:57.235Z,980.7
2022-09-24T22:28:59.121Z,980.8
2022-09-24T22:31:00.250Z,980.8
2022-09-24T22:33:01.657Z,980.8
2022-09-24T22:35:03.559Z,980.8
2022-09-24T22:37:04.990Z,980.7
2022-09-24T22:39:06.243Z,980.7
2022-09-24T22:41:07.923Z,980.6
2022-09-24T22:43:09.063Z,980.7
2022-09-24T22:45:10.034Z,980.6
2022-09-24T22:47:11.317Z,980.6
2022-09-24T22:49:12.601Z,980.6
2022-09-24T22:51:13.790Z,980.6
2022-09-24T22:53:14.777Z,980.6
2022-09-24T22:55:16.334Z,980.5
2022-09-24T22:58:01.688Z,980.6
2022-09-24T23:00:03.381Z,980.6
2022-09-24T23:02:08.258Z,980.6
2022-09-24T23:04:06.954Z,980.5
2022-09-24T23:06:08.258Z,980.5
2022-09-24T23:08:09.324Z,980.5
2022-09-24T23:10:10.748Z,980.5
2022-09-24T23:12:12.418Z,980.4
2022-09-24T23:16:14.484Z,980.4
2022-09-24T23:18:15.523Z,980.4
2022-09-24T23:20:16.936Z,980.4
2022-09-24T23:22:18.801Z,980.3
2022-09-24T23:24:20.495Z,980.4
2022-09-24T23:26:21.749Z,980.4
2022-09-24T23:28:22.896Z,980.4
2022-09-24T23:30:24.328Z,980.4
2022-09-24T23:32:26.014Z,980.4
2022-09-24T23:34:27.178Z,980.5
2022-09-24T23:36:28.819Z,980.5
2022-09-24T23:38:30.525Z,980.4
2022-09-24T23:40:31.693Z,980.5
2022-09-24T23:42:32.494Z,980.5
2022-09-24T23:44:33.784Z,980.4
2022-09-24T23:46:35.254Z,980.5
2022-09-24T23:48:36.312Z,980.4
2022-09-24T23:50:37.572Z,980.4
2022-09-24T23:52:39.310Z,980.3
2022-09-24T23:54:41.109Z,980.5
2022-09-24T23:56:42.253Z,980.3
2022-09-24T23:58:43.888Z,980.5
